Flight Track Log - Related Links

Times and Time Zones

All times are in EDT time to prevent confusion due to time zone crossing. See the EJA396 flight status page for this flight to view local times or setup timezone preferences in your user account.

Time Position Orientation Groundspeed Altitude Reporting Facility
EDT Latitude Longitude Course Direction KTS MPH feet Rate Location/Type
Wed 02:22:53 AM 34.1667 -118.4667 92° East 211 243 2,100  Level Southern California TRACON
Wed 02:24:54 AM 34.2500 -118.3911 37° Northeast 277 319 8,800 3,315 Climbing Los Angeles Center
Wed 02:25:54 AM 34.3317 -118.3683 13° North 295 339 12,100 3,136 Climbing Los Angeles Center
Wed 02:27:06 AM 34.4269 -118.3197 23° Northeast 321 369 15,700 2,481 Climbing Los Angeles Center
Wed 02:28:00 AM 34.1780 -117.6275 92° East  Level Estimated
Wed 02:28:07 AM 34.4331 -118.2072 86° East 344 396 17,600  Level Los Angeles Center
Wed 02:29:07 AM 34.4136 -118.0914 101° East 375 432 19,000 1,388 Climbing Los Angeles Center
Wed 02:30:08 AM 34.3917 -117.9597 101° East 398 458 20,400 992 Climbing Los Angeles Center
Wed 02:31:08 AM 34.3661 -117.8067 101° East 416 479 21,000 645 Climbing Los Angeles Center
Wed 02:32:09 AM 34.3294 -117.6692 108° East 426 490 21,700 1,339 Climbing Los Angeles Center
Wed 02:33:09 AM 34.2758 -117.5464 118° Southeast 414 476 23,700 2,000 Climbing Los Angeles Center
Wed 02:34:09 AM 34.2206 -117.4181 117° Southeast 423 487 25,700 1,983 Climbing Los Angeles Center
Wed 02:35:10 AM 34.1889 -117.2819 106° East 424 488 27,700 2,083 Climbing Los Angeles Center
Wed 02:36:10 AM 34.1639 -117.1336 101° East 425 489 29,900 2,050 Climbing Los Angeles Center
Wed 02:37:10 AM 34.1397 -116.9975 102° East 418 481 31,800 1,934 Climbing Los Angeles Center
Wed 02:38:11 AM 34.1181 -116.8617 101° East 405 466 33,800 1,835 Climbing Los Angeles Center
Wed 02:39:11 AM 34.0953 -116.7317 102° East 398 458 35,500 1,350 Climbing Los Angeles Center
Wed 02:40:11 AM 34.0731 -116.6006 102° East 399 459 36,500 992 Climbing Los Angeles Center
Wed 02:41:12 AM 34.0497 -116.4650 102° East 412 474 37,500 942 Climbing Los Angeles Center
Wed 02:42:12 AM 34.0261 -116.3292 102° East 414 476 38,400 750 Climbing Los Angeles Center
Wed 02:43:12 AM 34.0011 -116.1908 102° East 421 484 39,000 595 Climbing Los Angeles Center
Wed 02:44:13 AM 33.9761 -116.0492 102° East 431 496 39,600 496 Climbing Los Angeles Center
Wed 02:45:13 AM 33.9500 -115.9036 102° East 442 509 40,000 500 Climbing Los Angeles Center
Wed 02:46:13 AM 33.9236 -115.7556 102° East 451 519 40,600 496 Climbing Los Angeles Center
Wed 02:47:14 AM 33.8969 -115.6086 102° East 450 518 41,000 198 Climbing Los Angeles Center
Wed 02:48:14 AM 33.8686 -115.4578 103° East 459 528 41,000  Level Los Angeles Center
Wed 02:49:14 AM 33.8403 -115.3044 103° East 468 539 41,000  Level Los Angeles Center
Wed 02:50:15 AM 33.8122 -115.1489 102° East 474 545 41,000  Level Los Angeles Center
Wed 02:51:15 AM 33.7825 -114.9886 103° East 484 557 41,000  Level Los Angeles Center
Wed 02:52:15 AM 33.7517 -114.8283 103° East 490 564 41,000  Level Los Angeles Center
Wed 02:53:16 AM 33.7211 -114.6658 103° East 495 570 41,000  Level Los Angeles Center
Wed 02:54:16 AM 33.6900 -114.5017 103° East 516 594 41,000  Level Los Angeles Center
Wed 02:55:09 AM 33.6675 -114.3661 101° East 501 577 41,000  Level Albuquerque Center
Wed 02:56:09 AM 33.6364 -114.2103 103° East 504 580 41,000  Level Albuquerque Center
Wed 02:57:09 AM 33.6061 -114.0481 103° East 502 578 41,000  Level Albuquerque Center
Wed 02:58:10 AM 33.5731 -113.8783 103° East 500 575 41,000  Level Albuquerque Center
Wed 02:59:10 AM 33.5414 -113.7194 103° East 494 568 41,000  Level Albuquerque Center
Wed 03:00:10 AM 33.5100 -113.5625 103° East 487 560 41,000  Level Albuquerque Center
Wed 03:01:10 AM 33.4778 -113.4058 104° East 484 557 41,000  Level Albuquerque Center
Wed 03:02:11 AM 33.4467 -113.2492 103° East 483 556 41,000  Level Albuquerque Center
Wed 03:03:11 AM 33.4144 -113.0942 104° East 481 554 41,000  Level Albuquerque Center
Wed 03:04:11 AM 33.3831 -112.9406 104° East 477 549 41,000  Level Albuquerque Center
Wed 03:05:11 AM 33.3514 -112.7858 104° East 477 549 41,000  Level Albuquerque Center
Wed 03:06:12 AM 33.3192 -112.6300 104° East 479 551 41,000  Level Albuquerque Center
Wed 03:07:12 AM 33.2844 -112.4644 104° East 473 544 41,000  Level Albuquerque Center
Wed 03:08:12 AM 33.2519 -112.3122 104° East 476 548 41,000  Level Albuquerque Center
Wed 03:09:12 AM 33.2214 -112.1597 103° East 476 548 41,000  Level Albuquerque Center
Wed 03:10:12 AM 33.1889 -112.0081 104° East 475 547 41,000  Level Albuquerque Center
Wed 03:11:13 AM 33.1556 -111.8569 105° East 475 547 41,000  Level Albuquerque Center
Wed 03:12:13 AM 33.1225 -111.7044 104° East 478 550 41,000  Level Albuquerque Center
Wed 03:13:13 AM 33.0903 -111.5531 104° East 476 548 41,000  Level Albuquerque Center
Wed 03:14:13 AM 33.0581 -111.4014 104° East 476 548 41,000  Level Albuquerque Center
Wed 03:15:14 AM 33.0247 -111.2494 105° East 476 548 41,000  Level Albuquerque Center
Wed 03:16:14 AM 32.9911 -111.0969 105° East 476 548 41,000  Level Albuquerque Center
Wed 03:17:14 AM 32.9569 -110.9458 105° East 476 548 41,000  Level Albuquerque Center
Wed 03:18:14 AM 32.9228 -110.7953 105° East 475 547 41,000  Level Albuquerque Center
Wed 03:19:15 AM 32.8864 -110.6367 105° East 475 547 41,000  Level Albuquerque Center
Wed 03:20:15 AM 32.8536 -110.4839 104° East 477 549 41,000  Level Albuquerque Center
Wed 03:21:15 AM 32.8186 -110.3325 105° East 478 550 41,000  Level Albuquerque Center
Wed 03:22:15 AM 32.7842 -110.1806 105° East 477 549 41,000  Level Albuquerque Center
Wed 03:23:15 AM 32.7481 -110.0297 106° East 477 549 41,000  Level Albuquerque Center
Wed 03:24:16 AM 32.7136 -109.8800 105° East 474 545 41,000  Level Albuquerque Center
Wed 03:25:16 AM 32.6778 -109.7297 106° East 475 547 41,000  Level Albuquerque Center
Wed 03:26:16 AM 32.6400 -109.5772 106° East 482 555 41,000  Level Albuquerque Center
Wed 03:27:16 AM 32.6050 -109.4278 105° East 477 549 41,000  Level Albuquerque Center
Wed 03:28:17 AM 32.5694 -109.2781 106° East 476 548 41,000  Level Albuquerque Center
Wed 03:29:17 AM 32.5333 -109.1281 106° East 477 549 41,000  Level Albuquerque Center
Wed 03:30:17 AM 32.4975 -108.9781 106° East 478 550 41,000  Level Albuquerque Center
Wed 03:31:17 AM 32.4617 -108.8283 106° East 479 551 41,000  Level Albuquerque Center
Wed 03:32:18 AM 32.4250 -108.6789 106° East 477 549 41,000  Level Albuquerque Center
Wed 03:33:18 AM 32.3814 -108.4989 106° East 477 549 41,000  Level Albuquerque Center
Wed 03:34:18 AM 32.3475 -108.3575 106° East 476 548 41,000  Level Albuquerque Center
Wed 03:35:18 AM 32.3094 -108.2081 107° East 478 550 41,000  Level Albuquerque Center
Wed 03:36:18 AM 32.2719 -108.0575 106° East 478 550 41,000  Level Albuquerque Center
Wed 03:37:19 AM 32.2353 -107.9083 106° East 477 549 41,000  Level Albuquerque Center
Wed 03:38:19 AM 32.1975 -107.7594 107° East 476 548 41,000  Level Albuquerque Center
Wed 03:39:19 AM 32.1600 -107.6108 107° East 477 549 41,000  Level Albuquerque Center
Wed 03:40:19 AM 32.1228 -107.4625 106° East 477 549 41,000  Level Albuquerque Center
Wed 03:41:20 AM 32.0850 -107.3131 107° East 479 551 41,000  Level Albuquerque Center
Wed 03:42:20 AM 32.0472 -107.1653 107° East 478 550 41,000  Level Albuquerque Center
Wed 03:43:20 AM 32.0106 -107.0164 106° East 477 549 41,000  Level Albuquerque Center
Wed 03:44:20 AM 31.9717 -106.8686 107° East 477 549 41,000  Level Albuquerque Center
Wed 03:45:21 AM 31.9322 -106.7217 108° East 475 547 41,000  Level Albuquerque Center
Wed 03:46:21 AM 31.8867 -106.5536 108° East 478 550 41,000  Level Albuquerque Center
Wed 03:47:21 AM 31.8492 -106.4006 106° East 483 556 41,000  Level Albuquerque Center
Wed 03:48:21 AM 31.8094 -106.2508 107° East 483 556 41,000  Level Albuquerque Center
Wed 03:49:21 AM 31.7714 -106.1008 107° East 481 554 41,000  Level Albuquerque Center
Wed 03:50:22 AM 31.7333 -105.9514 107° East 477 549 41,000  Level Albuquerque Center
Wed 03:51:22 AM 31.7053 -105.7997 102° East 476 548 41,000  Level Albuquerque Center
Wed 03:52:22 AM 31.6919 -105.6453 96° East 475 547 41,000  Level Albuquerque Center
Wed 03:53:22 AM 31.6781 -105.4900 96° East 476 548 41,000  Level Albuquerque Center
Wed 03:54:23 AM 31.6644 -105.3350 96° East 477 549 41,000  Level Albuquerque Center
Wed 03:55:23 AM 31.6503 -105.1789 96° East 479 551 41,000  Level Albuquerque Center
Wed 03:56:23 AM 31.6350 -105.0236 97° East 478 550 41,000  Level Albuquerque Center
Wed 03:57:23 AM 31.6200 -104.8703 97° East 475 547 41,000  Level Albuquerque Center
Wed 03:58:23 AM 31.6053 -104.7153 96° East 475 547 41,000  Level Albuquerque Center
Wed 03:59:24 AM 31.5903 -104.5611 96° East 475 547 41,000  Level Albuquerque Center
Wed 04:00:24 AM 31.5750 -104.4069 97° East 475 547 41,000  Level Albuquerque Center
Wed 04:01:24 AM 31.5594 -104.2519 97° East 477 549 41,000  Level Albuquerque Center
Wed 04:02:24 AM 31.5436 -104.0981 97° East 476 548 41,000  Level Albuquerque Center
Wed 04:03:24 AM 31.5278 -103.9450 97° East 473 544 41,000  Level Albuquerque Center
Wed 04:04:25 AM 31.5122 -103.7914 97° East 474 545 41,000  Level Albuquerque Center
Wed 04:05:25 AM 31.4953 -103.6453 98° East 473 544 41,000  Level Albuquerque Center
Wed 04:06:25 AM 31.4783 -103.4933 97° East 471 542 41,000  Level Albuquerque Center
Wed 04:07:25 AM 31.4589 -103.3439 99° East 468 539 41,000  Level Albuquerque Center
Wed 04:08:25 AM 31.4414 -103.1925 98° East 468 539 41,000  Level Albuquerque Center
Wed 04:09:25 AM 31.4256 -103.0419 97° East 468 539 41,000  Level Albuquerque Center
Wed 04:10:26 AM 31.4089 -102.8914 97° East 467 537 41,000  Level Albuquerque Center
Wed 04:11:26 AM 31.3925 -102.7422 97° East 466 536 41,000  Level Albuquerque Center
Wed 04:12:26 AM 31.3756 -102.5914 97° East 466 536 41,000  Level Albuquerque Center
Wed 04:13:26 AM 31.3578 -102.4369 98° East 483 556 41,000  Level Albuquerque Center
Wed 04:14:26 AM 31.3403 -102.2856 98° East 480 552 41,000  Level Albuquerque Center
Wed 04:15:26 AM 31.3214 -102.1356 98° East 471 542 41,000  Level Albuquerque Center
Wed 04:16:05 AM 31.3114 -102.0261 96° East 470 541 41,000  Level Houston Center
Wed 04:17:05 AM 31.2925 -101.8778 98° East 464 534 41,000  Level Houston Center
Wed 04:18:06 AM 31.2739 -101.7281 98° East 465 535 41,000  Level Houston Center
Wed 04:19:06 AM 31.2550 -101.5794 98° East 464 534 41,000  Level Houston Center
Wed 04:20:06 AM 31.2353 -101.4294 99° East 465 535 41,000  Level Houston Center
Wed 04:21:06 AM 31.2161 -101.2803 99° East 466 536 41,000  Level Houston Center
Wed 04:22:06 AM 31.1978 -101.1278 98° East 465 535 41,000  Level Houston Center
Wed 04:23:07 AM 31.1792 -100.9786 98° East 464 534 41,000  Level Houston Center
Wed 04:24:07 AM 31.1592 -100.8297 99° East 465 535 41,000  Level Houston Center
Wed 04:25:07 AM 31.1400 -100.6806 98° East 465 535 41,000  Level Houston Center
Wed 04:26:07 AM 31.1211 -100.5303 98° East 467 537 41,000  Level Houston Center
Wed 04:27:07 AM 31.1006 -100.3819 99° East 463 533 41,000  Level Houston Center
Wed 04:28:08 AM 31.0811 -100.2331 99° East 463 533 41,000  Level Houston Center
Wed 04:29:08 AM 31.0617 -100.0856 99° East 461 531 41,000  Level Houston Center
Wed 04:30:08 AM 31.0417 -99.9392 99° East 457 526 41,000  Level Houston Center
Wed 04:31:08 AM 31.0211 -99.7903 99° East 461 531 41,000  Level Houston Center
Wed 04:32:08 AM 30.9997 -99.6422 100° East 463 533 41,000  Level Houston Center
Wed 04:33:09 AM 30.9797 -99.4939 99° East 461 531 41,000  Level Houston Center
Wed 04:34:09 AM 30.9575 -99.3444 100° East 467 537 41,000  Level Houston Center
Wed 04:35:09 AM 30.9367 -99.1972 99° East 463 533 41,000  Level Houston Center
Wed 04:36:09 AM 30.9156 -99.0519 100° East 463 533 41,000  Level Houston Center
Wed 04:37:09 AM 30.8942 -98.9028 99° East 465 535 41,000  Level Houston Center
Wed 04:38:09 AM 30.8711 -98.7556 100° East 460 529 41,000  Level Houston Center
Wed 04:39:10 AM 30.8500 -98.6050 99° East 465 535 41,000  Level Houston Center
Wed 04:40:10 AM 30.8283 -98.4581 100° East 459 528 41,000  Level Houston Center
Wed 04:41:10 AM 30.8064 -98.3100 100° East 461 531 41,000  Level Houston Center
Wed 04:42:10 AM 30.7839 -98.1619 100° East 462 532 41,000  Level Houston Center
Wed 04:43:10 AM 30.7600 -98.0133 101° East 464 534 41,000  Level Houston Center
Wed 04:44:11 AM 30.7381 -97.8667 100° East 460 529 41,000  Level Houston Center
Wed 04:45:11 AM 30.7144 -97.7194 101° East 462 532 41,000  Level Houston Center
Wed 04:46:11 AM 30.6917 -97.5719 100° East 461 531 41,000  Level Houston Center
Wed 04:47:11 AM 30.6675 -97.4256 101° East 462 532 41,000  Level Houston Center
Wed 04:48:11 AM 30.6450 -97.2778 100° East 466 536 41,000  Level Houston Center
Wed 04:49:11 AM 30.6225 -97.1311 100° East 463 533 41,000  Level Houston Center
Wed 04:50:12 AM 30.5989 -96.9844 101° East 462 532 41,000  Level Houston Center
Wed 04:51:12 AM 30.5753 -96.8372 101° East 462 532 41,000  Level Houston Center
Wed 04:52:12 AM 30.5514 -96.6906 101° East 460 529 41,000  Level Houston Center
Wed 04:53:12 AM 30.5275 -96.5450 101° East 457 526 41,000  Level Houston Center
Wed 04:54:12 AM 30.5033 -96.3969 101° East 462 532 41,000  Level Houston Center
Wed 04:55:13 AM 30.4836 -96.2739 101° East 464 534 41,000  Level Houston Center
Wed 04:56:13 AM 30.4592 -96.1269 101° East 462 532 41,000  Level Houston Center
Wed 04:57:13 AM 30.4297 -95.9636 102° East 459 528 41,000  Level Houston Center
Wed 04:58:13 AM 30.4058 -95.8181 101° East 459 528 41,000  Level Houston Center
Wed 04:59:13 AM 30.3800 -95.6739 102° East 457 526 41,000  Level Houston Center
Wed 05:00:13 AM 30.3553 -95.5283 101° East 460 529 41,000  Level Houston Center
Wed 05:01:14 AM 30.3306 -95.3831 101° East 459 528 41,000  Level Houston Center
Wed 05:02:14 AM 30.3047 -95.2375 102° East 460 529 41,000  Level Houston Center
Wed 05:03:14 AM 30.2800 -95.0931 101° East 456 525 41,000  Level Houston Center
Wed 05:04:14 AM 30.2553 -94.9483 101° East 457 526 41,000  Level Houston Center
Wed 05:05:14 AM 30.2292 -94.8050 102° East 454 522 41,000  Level Houston Center
Wed 05:06:15 AM 30.2047 -94.6622 101° East 453 521 41,000  Level Houston Center
Wed 05:07:15 AM 30.1783 -94.5197 102° East 453 521 41,000  Level Houston Center
Wed 05:08:15 AM 30.1553 -94.4050 103° East 451 519 41,000  Level Houston Center
Wed 05:09:15 AM 30.1244 -94.2353 102° East 451 519 41,000  Level Houston Center
Wed 05:10:15 AM 30.0975 -94.0950 102° East 452 520 41,000  Level Houston Center
Wed 05:11:15 AM 30.0719 -93.9539 102° East 452 520 41,000  Level Houston Center
Wed 05:12:16 AM 30.0456 -93.8119 102° East 454 522 41,000  Level Houston Center
Wed 05:13:16 AM 30.0181 -93.6703 103° East 455 524 41,000  Level Houston Center
Wed 05:14:16 AM 29.9900 -93.5281 103° East 458 527 41,000  Level Houston Center
Wed 05:15:16 AM 29.9628 -93.3850 102° East 461 531 41,000  Level Houston Center
Wed 05:16:16 AM 29.9364 -93.2433 102° East 458 527 41,000  Level Houston Center
Wed 05:17:17 AM 29.9092 -93.1008 102° East 458 527 41,000  Level Houston Center
Wed 05:18:17 AM 29.8817 -92.9569 102° East 462 532 41,000  Level Houston Center
Wed 05:19:17 AM 29.8533 -92.8136 103° East 462 532 41,000  Level Houston Center
Wed 05:20:17 AM 29.8256 -92.6700 103° East 462 532 41,000  Level Houston Center
Wed 05:21:18 AM 29.7975 -92.5275 103° East 459 528 41,000  Level Houston Center
Wed 05:22:18 AM 29.7692 -92.3856 103° East 457 526 41,000  Level Houston Center
Wed 05:23:18 AM 29.7403 -92.2417 103° East 460 529 41,000  Level Houston Center
Wed 05:24:18 AM 29.7122 -92.0997 103° East 457 526 41,000  Level Houston Center
Wed 05:25:18 AM 29.6839 -91.9567 103° East 460 529 41,000 400 Level Houston Center
Wed 05:26:18 AM 29.6542 -91.8153 104° East 457 526 41,800 793 Climbing Houston Center
Wed 05:27:19 AM 29.6272 -91.6828 103° East 449 517 42,600 744 Climbing Houston Center
Wed 05:28:19 AM 29.6003 -91.5467 103° East 441 507 43,300 750 Climbing Houston Center
Wed 05:29:19 AM 29.5722 -91.4131 104° East 433 498 44,100 750 Climbing Houston Center
Wed 05:30:19 AM 29.5400 -91.2550 103° East 425 489 44,800 450 Climbing Houston Center
Wed 05:31:19 AM 29.5122 -91.1239 104° East 425 489 45,000 99 Climbing Houston Center
Wed 05:32:20 AM 29.4831 -90.9922 104° East 427 491 45,000  Level Houston Center
Wed 05:33:20 AM 29.4556 -90.8572 103° East 435 501 45,000  Level Houston Center
Wed 05:34:20 AM 29.4267 -90.7228 104° East 436 502 45,000  Level Houston Center
Wed 05:35:20 AM 29.3981 -90.5881 104° East 436 502 45,000  Level Houston Center
Wed 05:36:20 AM 29.3689 -90.4539 104° East 436 502 45,000  Level Houston Center
Wed 05:37:20 AM 29.3397 -90.3206 104° East 435 501 45,000  Level Houston Center
Wed 05:38:21 AM 29.3103 -90.1853 104° East 437 503 45,000  Level Houston Center
Wed 05:39:21 AM 29.2811 -90.0489 104° East 439 505 45,000  Level Houston Center
Wed 05:40:21 AM 29.2503 -89.9117 104° East 444 511 45,000  Level Houston Center
Wed 05:41:21 AM 29.2203 -89.7747 104° East 445 512 45,000  Level Houston Center
Wed 05:42:22 AM 29.1906 -89.6386 104° East 445 512 45,000  Level Houston Center
Wed 05:43:22 AM 29.1600 -89.5022 104° East 445 512 45,000  Level Houston Center
Wed 05:44:22 AM 29.1300 -89.3631 104° East 449 517 45,000  Level Houston Center
Wed 05:45:22 AM 29.0989 -89.2247 104° East 450 518 45,000  Level Houston Center
Wed 05:46:22 AM 29.0681 -89.0886 104° East 446 513 45,000  Level Houston Center
Wed 05:47:23 AM 29.0367 -88.9528 105° East 445 512 45,000  Level Houston Center
Wed 05:48:23 AM 29.0058 -88.8150 104° East 447 514 45,000  Level Houston Center
Wed 05:49:23 AM 28.9733 -88.6792 105° East 446 513 45,000  Level Houston Center
Wed 05:50:23 AM 28.9425 -88.5408 104° East 449 517 45,000  Level Houston Center
Wed 05:51:23 AM 28.9100 -88.4036 105° East 450 518 45,000  Level Houston Center
Wed 05:52:24 AM 28.8781 -88.2644 105° East 452 520 45,000  Level Houston Center
Wed 05:53:24 AM 28.8464 -88.1278 105° East 450 518 45,000  Level Houston Center
Wed 05:54:24 AM 28.8125 -87.9828 105° East 452 520 45,000  Level Houston Center
Wed 05:55:24 AM 28.7792 -87.8444 105° East 454 522 45,000  Level Houston Center
Wed 05:56:25 AM 28.7467 -87.7050 105° East 456 525 45,000  Level Houston Center
Wed 05:57:25 AM 28.7133 -87.5650 105° East 458 527 45,000  Level Houston Center
Wed 05:58:25 AM 28.6794 -87.4264 106° East 457 526 45,000  Level Houston Center
Wed 05:59:25 AM 28.6456 -87.2864 105° East 458 527 45,000  Level Houston Center
Wed 06:00:26 AM 28.6119 -87.1464 105° East 460 529 45,000  Level Houston Center
Wed 06:01:26 AM 28.5769 -87.0061 106° East 462 532 45,000  Level Houston Center
Wed 06:02:26 AM 28.5433 -86.8650 105° East 463 533 45,000  Level Houston Center
Wed 06:03:26 AM 28.5086 -86.7256 106° East 461 531 45,000  Level Houston Center
Wed 06:04:49 AM 28.4594 -86.5308 106° East 460 529 45,000  Level Jacksonville Center
Wed 06:05:49 AM 28.4256 -86.3975 106° East 468 539 45,000  Level Jacksonville Center
Wed 06:06:49 AM 28.3917 -86.2572 105° East 475 547 45,000  Level Jacksonville Center
Wed 06:09:03 AM 28.3142 -85.9539 106° East 478 550 45,000  Level Miami Center
Wed 06:10:03 AM 28.2744 -85.7931 106° East 464 534 45,000  Level Miami Center
Wed 06:11:03 AM 28.2481 -85.6828 105° East 458 527 45,000  Level Miami Center
Wed 06:12:03 AM 28.2039 -85.5194 107° East 453 521 45,000  Level Miami Center
Wed 06:13:03 AM 28.1836 -85.4378 106° East 453 521 45,000  Level Miami Center
Wed 06:14:03 AM 28.1347 -85.2461 106° East 453 521 45,000  Level Miami Center
Wed 06:15:15 AM 28.1008 -85.1097 106° East 447 514 45,000  Level Miami Center
Wed 06:16:15 AM 28.0500 -84.9417 109° East 452 520 45,000  Level Miami Center
Wed 06:17:15 AM 28.0139 -84.8075 107° East 452 520 45,000  Level Miami Center
Wed 06:18:15 AM 27.9733 -84.6686 108° East 452 520 45,000  Level Miami Center
Wed 06:19:15 AM 27.9319 -84.5483 111° Southeast 452 520 45,000  Level Miami Center
Wed 06:20:15 AM 27.8978 -84.4100 106° East 452 520 45,000  Level Miami Center
Wed 06:21:15 AM 27.8589 -84.2736 108° East 452 520 45,000  Level Miami Center
Wed 06:22:15 AM 27.8222 -84.1375 107° East 452 520 45,000  Level Miami Center
Wed 06:23:15 AM 27.7969 -84.0564 109° East 452 520 45,000  Level Miami Center
Wed 06:24:15 AM 27.7375 -83.8675 110° East 452 520 45,000  Level Miami Center
Wed 06:25:15 AM 27.7003 -83.7292 107° East 452 520 45,000 -182 Level Miami Center
Wed 06:26:27 AM 27.6581 -83.5675 106° East 452 520 44,600 -773 Descending Miami Center
Wed 06:27:27 AM 27.6164 -83.4292 109° East 452 520 43,300 -1,409 Descending Miami Center
Wed 06:28:39 AM 27.5675 -83.2625 108° East 452 520 41,500 -1,500 Descending Miami Center
Wed 06:29:39 AM 27.5275 -83.1269 108° East 452 520 40,000 -1,500 Descending Miami Center
Wed 06:30:39 AM 27.4878 -82.9892 108° East 452 520 38,500 -1,600 Descending Miami Center
Wed 06:31:39 AM 27.4417 -82.8394 109° East 452 520 36,800 -1,600 Descending Miami Center
Wed 06:32:39 AM 27.3997 -82.6969 108° East 457 526 35,300 -1,450 Descending Miami Center
Wed 06:33:39 AM 27.3594 -82.5572 108° East 469 540 33,900 -1,400 Descending Miami Center
Wed 06:34:39 AM 27.3206 -82.4289 109° East 475 547 32,500 -1,550 Descending Miami Center
Wed 06:35:39 AM 27.2722 -82.2750 109° East 475 547 30,800 -1,600 Descending Miami Center
Wed 06:36:39 AM 27.2314 -82.1306 108° East 475 547 29,300 -1,450 Descending Miami Center
Wed 06:37:39 AM 27.1864 -81.9908 110° East 475 547 27,900 -1,450 Descending Miami Center
Wed 06:38:39 AM 27.1511 -81.8703 108° East 463 533 26,400 -1,450 Descending Miami Center
Wed 06:39:39 AM 27.1117 -81.7381 109° East 453 521 25,000 -1,250 Descending Miami Center
Wed 06:40:39 AM 27.0661 -81.5986 110° East 448 516 23,900 -1,500 Descending Miami Center
Wed 06:41:39 AM 27.0286 -81.4711 108° East 438 504 22,000 -2,100 Descending Miami Center
Wed 06:42:39 AM 26.9928 -81.3531 109° East 416 479 19,700 -2,450 Descending Miami Center
Wed 06:43:39 AM 26.9567 -81.2331 109° East 410 472 17,100 -2,450 Descending Miami Center
Wed 06:44:39 AM 26.9206 -81.1153 109° East 405 466 14,800 -2,150 Descending Miami Center
Wed 06:45:39 AM 26.8861 -81.0069 110° East 388 447 12,800 -2,050 Descending Miami Center
Wed 06:46:39 AM 26.8536 -80.9033 109° East 369 425 10,700 -1,400 Descending Miami Center
Wed 06:47:39 AM 26.8328 -80.8233 106° East 317 365 10,000 -682 Descending Miami Center
Wed 06:48:51 AM 26.8044 -80.7083 105° East 294 338 9,200 -909 Descending Miami Center
Wed 06:49:51 AM 26.7839 -80.6194 105° East 289 333 8,000 -1,182 Descending Miami Center
Wed 06:51:03 AM 26.7592 -80.5186 105° East 283 326 6,600 -1,227 Descending Miami Center
Wed 06:52:03 AM 26.7383 -80.4342 105° East 277 319 5,300 -1,200 Descending Miami Center
Wed 06:53:03 AM 26.7194 -80.3544 105° East 272 313 4,200 -1,200 Descending Miami Center
Wed 06:54:03 AM 26.7003 -80.2772 106° East 260 299 2,900 -1,150 Descending Miami Center
Wed 06:55:03 AM 26.6856 -80.2025 102° East 255 293 1,900 -1,000 Descending Miami Center
Wed 06:57:00 AM 26.6832 -80.0956 50° Northeast  Level Estimated
Wed 07:04:00 AM 26.6832 -80.0956 50° Northeast  Level Estimated
Wed 07:05:00 AM 26.6832 -80.0956 50° Northeast  Level Estimated

Login

Don't have an account? Register now (free) for customized features, flight alerts, and more!